createdAt,value
2016-04-04T00:00:52.956Z,47.53
2016-04-04T00:01:52.973Z,47.34
2016-04-04T00:02:52.993Z,47.34
2016-04-04T00:03:53.010Z,47.61
2016-04-04T00:04:53.045Z,47.13
2016-04-04T00:05:53.062Z,47.51
2016-04-04T00:06:53.097Z,47.51
2016-04-04T00:07:53.131Z,47.22
2016-04-04T00:08:53.148Z,47.71
2016-04-04T00:09:53.167Z,47.71
2016-04-04T00:10:53.186Z,47.71
2016-04-04T00:11:53.220Z,47.71
2016-04-04T00:12:53.238Z,47.99
2016-04-04T00:13:53.272Z,47.8
2016-04-04T00:14:53.290Z,47.99
2016-04-04T00:15:53.325Z,48.18
2016-04-04T00:16:53.342Z,47.99
2016-04-04T00:17:53.360Z,47.89
2016-04-04T00:18:53.379Z,48.09
2016-04-04T00:19:53.428Z,47.99
2016-04-04T00:20:53.431Z,47.99
2016-04-04T00:21:53.450Z,48.18
2016-04-04T00:22:53.483Z,48.09
2016-04-04T00:23:53.518Z,48.09
2016-04-04T00:24:53.535Z,48.18
2016-04-04T00:25:53.554Z,47.89
2016-04-04T00:26:53.572Z,47.99
2016-04-04T00:27:53.607Z,48.09
2016-04-04T00:28:53.640Z,47.99
2016-04-04T00:29:53.659Z,47.89
2016-04-04T00:30:53.676Z,47.99
2016-04-04T00:31:53.695Z,48.09
2016-04-04T00:32:53.713Z,47.89
2016-04-04T00:33:53.748Z,47.89
2016-04-04T00:34:53.765Z,48.54
2016-04-04T00:35:53.800Z,48.28
2016-04-04T00:36:53.817Z,48.47
2016-04-04T00:37:53.851Z,48.44
2016-04-04T00:38:53.871Z,48.28
2016-04-04T00:39:53.903Z,48.35
2016-04-04T00:40:53.923Z,48.25
2016-04-04T00:41:53.956Z,48.16
2016-04-04T00:42:53.974Z,48.25
2016-04-04T00:43:53.992Z,48.16
2016-04-04T00:44:54.012Z,48.07
2016-04-04T00:45:54.045Z,48.25
2016-04-04T00:46:54.080Z,48.16
2016-04-04T00:47:54.082Z,48.16
2016-04-04T00:48:54.116Z,48.07
2016-04-04T00:49:54.133Z,48.35
2016-04-04T00:50:54.168Z,48.07
2016-04-04T00:51:54.186Z,48.35
2016-04-04T00:52:54.221Z,48.35
2016-04-04T00:53:54.238Z,48.35
2016-04-04T00:54:54.257Z,48.35
2016-04-04T00:55:54.275Z,48.25
2016-04-04T00:56:54.310Z,48.44
2016-04-04T00:57:54.327Z,48.44
2016-04-04T00:59:00.627Z,48.73
2016-04-04T00:59:54.377Z,48.44
2016-04-04T01:00:54.395Z,48.07
2016-04-04T01:01:54.413Z,48.35
2016-04-04T01:02:54.448Z,48.16
2016-04-04T01:03:54.482Z,48.35
2016-04-04T01:04:54.485Z,48.07
2016-04-04T01:05:54.518Z,48.25
2016-04-04T01:06:54.584Z,48.44
2016-04-04T01:07:54.555Z,48.54
2016-04-04T01:08:54.574Z,48.16
2016-04-04T01:09:54.607Z,48.44
2016-04-04T01:10:54.642Z,48.16
2016-04-04T01:11:54.660Z,48.35
2016-04-04T01:12:54.678Z,49.02
2016-04-04T01:13:54.712Z,48.61
2016-04-04T01:14:54.730Z,48.52
2016-04-04T01:15:54.748Z,49.09
2016-04-04T01:16:54.783Z,48.71
2016-04-04T01:17:54.800Z,48.42
2016-04-04T01:18:54.819Z,48.42
2016-04-04T01:19:54.853Z,48.52
2016-04-04T01:20:54.871Z,49.19
2016-04-04T01:21:54.889Z,48.52
2016-04-04T01:22:54.924Z,48.52
2016-04-04T01:23:54.942Z,48.52
2016-04-04T01:24:54.961Z,48.61
2016-04-04T01:25:54.994Z,49
2016-04-04T01:26:55.013Z,48.61
2016-04-04T01:27:55.030Z,48.8
2016-04-04T01:28:55.065Z,48.9
2016-04-04T01:29:55.082Z,49.38
2016-04-04T01:30:55.101Z,48.9
2016-04-04T01:31:55.135Z,49.19
2016-04-04T01:32:55.154Z,49.29
2016-04-04T01:33:55.172Z,49.29
2016-04-04T01:34:55.206Z,49.29
2016-04-04T01:35:55.224Z,49.38
2016-04-04T01:36:55.258Z,48.71
2016-04-04T01:37:55.277Z,48.8
2016-04-04T01:38:55.295Z,48.8
2016-04-04T01:39:55.313Z,49.38
2016-04-04T01:40:55.348Z,49.09
2016-04-04T01:41:55.365Z,49.19
2016-04-04T01:42:55.384Z,49.19
2016-04-04T01:43:55.417Z,48.8
2016-04-04T01:44:55.436Z,49.26
2016-04-04T01:45:55.454Z,49.09
2016-04-04T01:46:55.472Z,49.38
2016-04-04T01:47:55.506Z,49.07
2016-04-04T01:48:55.524Z,49.26
2016-04-04T01:49:55.558Z,49.35
2016-04-04T01:50:55.577Z,49.35
2016-04-04T01:51:55.594Z,49.76
2016-04-04T01:52:55.613Z,50.12
2016-04-04T01:53:55.647Z,49.16
2016-04-04T01:54:55.665Z,49.45
2016-04-04T01:55:55.699Z,49.35
2016-04-04T01:56:55.718Z,49.55
2016-04-04T01:57:55.736Z,49.35
2016-04-04T01:58:55.770Z,49.35
2016-04-04T01:59:55.788Z,49.16
2016-04-04T02:00:55.812Z,49.84
2016-04-04T02:01:55.830Z,49.26
2016-04-04T02:02:55.865Z,49.26
2016-04-04T02:03:55.882Z,49.26
2016-04-04T02:04:55.901Z,49.07
2016-04-04T02:05:55.934Z,49.26
2016-04-04T02:06:55.953Z,49.26
2016-04-04T02:07:55.971Z,49.16
2016-04-04T02:08:56.005Z,49.45
2016-04-04T02:09:56.023Z,50.31
2016-04-04T02:10:56.042Z,49.35
2016-04-04T02:11:56.076Z,49.64
2016-04-04T02:12:56.094Z,49.35
2016-04-04T02:13:56.128Z,49.35
2016-04-04T02:14:56.147Z,50.21
2016-04-04T02:15:56.165Z,50.21
2016-04-04T02:16:56.183Z,49.35
2016-04-04T02:17:56.201Z,49.55
2016-04-04T02:18:56.219Z,49.64
2016-04-04T02:19:56.253Z,49.64
2016-04-04T02:20:56.288Z,49.64
2016-04-04T02:21:56.306Z,49.74
2016-04-04T02:22:56.325Z,49.64
2016-04-04T02:23:56.342Z,49.84
2016-04-04T02:24:56.377Z,50.6
2016-04-04T02:25:56.394Z,50.21
2016-04-04T02:26:56.413Z,49.84
2016-04-04T02:27:56.432Z,50.21
2016-04-04T02:28:56.466Z,50.29
2016-04-04T02:29:56.483Z,50.12
2016-04-04T02:30:56.502Z,50.09
2016-04-04T02:31:56.521Z,50
2016-04-04T02:32:56.554Z,50.09
2016-04-04T02:33:56.588Z,50.41
2016-04-04T02:34:56.591Z,49.71
2016-04-04T02:35:56.624Z,50
2016-04-04T02:36:56.643Z,50
2016-04-04T02:37:56.662Z,50.09
2016-04-04T02:38:56.679Z,50.57
2016-04-04T02:39:56.714Z,49.9
2016-04-04T02:40:56.732Z,50.09
2016-04-04T02:41:56.765Z,50.29
2016-04-04T02:42:56.784Z,50.48
2016-04-04T02:43:56.803Z,50.19
2016-04-04T02:44:56.821Z,49.9
2016-04-04T02:45:56.855Z,50.19
2016-04-04T02:46:56.873Z,50.19
2016-04-04T02:47:56.892Z,50.19
2016-04-04T02:48:56.925Z,50.19
2016-04-04T02:49:56.944Z,49.9
2016-04-04T02:50:56.961Z,50.38
2016-04-04T02:51:56.980Z,50.57
2016-04-04T02:52:57.014Z,50.29
2016-04-04T02:53:57.047Z,50.38
2016-04-04T02:54:57.066Z,50.29
2016-04-04T02:55:57.085Z,50.19
2016-04-04T02:56:57.118Z,50.19
2016-04-04T02:57:57.138Z,50.48
2016-04-04T02:58:57.140Z,50.29
2016-04-04T02:59:57.189Z,50.29
2016-04-04T03:00:57.191Z,50.48
2016-04-04T03:01:57.211Z,50.29
2016-04-04T03:02:57.244Z,50.38
2016-04-04T03:03:57.278Z,50.67
2016-04-04T03:04:57.297Z,50.38
2016-04-04T03:05:57.299Z,50.67
2016-04-04T03:06:57.318Z,50.86
2016-04-04T03:07:57.376Z,50.86
2016-04-04T03:08:57.379Z,50.95
2016-04-04T03:09:57.413Z,50.57
2016-04-04T03:10:57.415Z,50.86
2016-04-04T03:11:57.433Z,50.57
2016-04-04T03:12:57.468Z,50.76
2016-04-04T03:13:57.501Z,51.05
2016-04-04T03:14:57.520Z,50.76
2016-04-04T03:15:57.538Z,50.86
2016-04-04T03:16:57.556Z,50.67
2016-04-04T03:17:57.590Z,50.76
2016-04-04T03:18:57.624Z,50.95
2016-04-04T03:19:57.627Z,51.05
2016-04-04T03:20:57.661Z,50.55
2016-04-04T03:21:57.664Z,50.76
2016-04-04T03:22:57.698Z,50.74
2016-04-04T03:23:57.715Z,50.76
2016-04-04T03:24:57.734Z,50.95
2016-04-04T03:25:57.753Z,50.76
2016-04-04T03:26:57.770Z,50.57
2016-04-04T03:27:57.805Z,50.67
2016-04-04T03:28:57.839Z,50.93
2016-04-04T03:29:57.841Z,50.64
2016-04-04T03:30:57.875Z,50.45
2016-04-04T03:31:57.909Z,50.64
2016-04-04T03:32:57.927Z,50.93
2016-04-04T03:33:57.930Z,51.03
2016-04-04T03:34:57.964Z,51.21
2016-04-04T03:35:58.014Z,51.21
2016-04-04T03:36:58.016Z,51.24
2016-04-04T03:37:58.035Z,51.21
2016-04-04T03:38:58.085Z,51.21
2016-04-04T03:39:58.072Z,50.84
2016-04-04T03:40:58.090Z,51.41
2016-04-04T03:41:58.123Z,51.41
2016-04-04T03:42:58.142Z,51.6
2016-04-04T03:43:58.160Z,51.41
2016-04-04T03:44:58.178Z,51.6
2016-04-04T03:45:58.197Z,51.6
2016-04-04T03:46:58.232Z,51.21
2016-04-04T03:47:58.249Z,51.12
2016-04-04T03:48:58.267Z,51.12
2016-04-04T03:49:58.302Z,51.6
2016-04-04T03:50:58.320Z,51.5
2016-04-04T03:51:58.337Z,51.5
2016-04-04T03:52:58.356Z,51.31
2016-04-04T03:53:58.390Z,51.41
2016-04-04T03:54:58.409Z,51.41
2016-04-04T03:55:58.426Z,51.5
2016-04-04T03:56:58.445Z,51.31
2016-04-04T03:57:58.464Z,51.5
2016-04-04T03:58:58.498Z,51.7
2016-04-04T03:59:58.516Z,51.6
2016-04-04T04:00:58.550Z,51.6
2016-04-04T04:01:58.553Z,51.7
2016-04-04T04:02:58.586Z,51.5
2016-04-04T04:03:58.620Z,51.7
2016-04-04T04:04:58.623Z,51.89
2016-04-04T04:05:58.658Z,51.89
2016-04-04T04:06:58.676Z,51.89
2016-04-04T04:07:58.695Z,52.26
2016-04-04T04:08:58.728Z,51.98
2016-04-04T04:09:58.747Z,51.98
2016-04-04T04:10:58.781Z,52.17
2016-04-04T04:11:58.783Z,52.17
2016-04-04T04:12:58.817Z,52.36
2016-04-04T04:13:58.836Z,52.26
2016-04-04T04:14:58.854Z,51.79
2016-04-04T04:15:58.872Z,52.17
2016-04-04T04:16:58.922Z,52.17
2016-04-04T04:17:58.925Z,52.17
2016-04-04T04:18:58.943Z,52.26
2016-04-04T04:19:58.961Z,52.26
2016-04-04T04:20:58.979Z,52.26
2016-04-04T04:21:58.998Z,52.08
2016-04-04T04:22:59.032Z,52.17
2016-04-04T04:23:59.049Z,52.08
2016-04-04T04:24:59.100Z,52.08
2016-04-04T04:25:59.087Z,52.08
2016-04-04T04:26:59.121Z,52.08
2016-04-04T04:27:59.138Z,52.08
2016-04-04T04:28:59.158Z,52.17
2016-04-04T04:29:59.176Z,52.17
2016-04-04T04:30:59.193Z,52.08
2016-04-04T04:31:59.228Z,52.46
2016-04-04T04:32:59.245Z,52.46
2016-04-04T04:33:59.265Z,52.08
2016-04-04T04:34:59.298Z,52.26
2016-04-04T04:35:59.317Z,52.36
2016-04-04T04:36:59.351Z,52.08
2016-04-04T04:37:59.369Z,52.08
2016-04-04T04:38:59.403Z,52.08
2016-04-04T04:39:59.405Z,51.98
2016-04-04T04:40:59.424Z,52.26
2016-04-04T04:41:59.458Z,52.17
2016-04-04T04:42:59.476Z,52.65
2016-04-04T04:43:59.494Z,52.46
2016-04-04T04:44:59.528Z,52.43
2016-04-04T04:45:59.547Z,52.46
2016-04-04T04:46:59.564Z,52.46
2016-04-04T04:47:59.583Z,52.53
2016-04-04T04:48:59.602Z,52.65
2016-04-04T04:49:59.620Z,52.65
2016-04-04T04:50:59.654Z,52.72
2016-04-04T04:51:59.703Z,52.43
2016-04-04T04:52:59.691Z,52.55
2016-04-04T04:53:59.708Z,52.34
2016-04-04T04:54:59.727Z,52.34
2016-04-04T04:55:59.807Z,52.62
2016-04-04T04:56:59.763Z,52.81
2016-04-04T04:57:59.798Z,52.81
2016-04-04T04:58:59.816Z,53
2016-04-04T04:59:59.849Z,52.53
2016-04-04T05:00:59.868Z,52.81
2016-04-04T05:01:59.887Z,52.53
2016-04-04T05:02:59.904Z,52.53
2016-04-04T05:03:59.924Z,52.43
2016-04-04T05:04:59.942Z,52.34
2016-04-04T05:05:59.976Z,52.53
2016-04-04T05:06:59.993Z,52.43
2016-04-04T05:08:00.012Z,52.53
2016-04-04T05:09:00.031Z,52.53
2016-04-04T05:10:00.064Z,52.43
2016-04-04T05:11:00.067Z,52.43
2016-04-04T05:12:00.100Z,52.81
2016-04-04T05:13:00.120Z,53
2016-04-04T05:14:00.153Z,52.62
2016-04-04T05:15:00.171Z,53
2016-04-04T05:16:00.190Z,53
2016-04-04T05:17:00.209Z,52.62
2016-04-04T05:18:00.227Z,52.91
2016-04-04T05:19:00.260Z,52.81
2016-04-04T05:20:00.279Z,52.81
2016-04-04T05:21:00.297Z,52.72
2016-04-04T05:22:00.315Z,52.81
2016-04-04T05:23:00.333Z,52.81
2016-04-04T05:24:00.464Z,52.91
2016-04-04T05:25:00.511Z,52.72
2016-04-04T05:26:00.404Z,52.72
2016-04-04T05:27:00.428Z,52.55
2016-04-04T05:28:00.504Z,52.62
2016-04-04T05:29:00.474Z,52.72
2016-04-04T05:30:00.493Z,53
2016-04-04T05:31:00.512Z,52.81
2016-04-04T05:32:00.546Z,52.81
2016-04-04T05:33:00.579Z,52.91
2016-04-04T05:34:00.582Z,52.81
2016-04-04T05:35:00.725Z,52.91
2016-04-04T05:36:00.618Z,52.81
2016-04-04T05:37:00.653Z,53
2016-04-04T05:38:00.671Z,52.81
2016-04-04T05:39:00.690Z,52.91
2016-04-04T05:40:00.707Z,52.91
2016-04-04T05:41:00.742Z,52.62
2016-04-04T05:42:00.759Z,52.91
2016-04-04T05:43:00.778Z,52.72
2016-04-04T05:44:00.797Z,52.72
2016-04-04T05:45:00.986Z,52.81
2016-04-04T05:46:00.849Z,52.72
2016-04-04T05:47:00.883Z,52.72
2016-04-04T05:48:00.901Z,52.84
2016-04-04T05:49:00.904Z,53.29
2016-04-04T05:50:00.938Z,52.81
2016-04-04T05:51:00.956Z,53
2016-04-04T05:52:00.989Z,53
2016-04-04T05:53:01.008Z,53.29
2016-04-04T05:54:01.026Z,53.39
2016-04-04T05:55:01.045Z,52.72
2016-04-04T05:56:01.063Z,52.72
2016-04-04T05:57:01.081Z,53.1
2016-04-04T05:58:01.116Z,53.2
2016-04-04T05:59:01.119Z,52.62
2016-04-04T06:00:01.136Z,53.39
2016-04-04T06:01:01.170Z,53.32
2016-04-04T06:02:01.220Z,52.72
2016-04-04T06:03:01.223Z,53.39
2016-04-04T06:04:01.240Z,53.29
2016-04-04T06:05:01.259Z,52.72
2016-04-04T06:06:01.277Z,53.13
2016-04-04T06:07:01.296Z,53.03
2016-04-04T06:08:01.329Z,52.94
2016-04-04T06:09:01.348Z,53.2
2016-04-04T06:10:01.367Z,52.75
2016-04-04T06:11:01.384Z,52.75
2016-04-04T06:12:01.512Z,52.91
2016-04-04T06:13:01.437Z,53.32
2016-04-04T06:14:01.455Z,52.65
2016-04-04T06:15:01.473Z,53.13
2016-04-04T06:16:01.492Z,53.32
2016-04-04T06:17:01.510Z,52.65
2016-04-04T06:18:01.544Z,53.32
2016-04-04T06:19:01.562Z,53.13
2016-04-04T06:20:01.581Z,52.55
2016-04-04T06:21:01.692Z,53.03
2016-04-04T06:22:01.695Z,53.41
2016-04-04T06:23:01.714Z,53.13
2016-04-04T06:24:01.716Z,53.03
2016-04-04T06:25:01.719Z,52.65
2016-04-04T06:26:01.737Z,53.03
2016-04-04T06:27:01.740Z,52.65
2016-04-04T06:28:01.758Z,52.55
2016-04-04T06:29:01.807Z,52.55
2016-04-04T06:30:01.827Z,52.94
2016-04-04T06:31:01.829Z,52.94
2016-04-04T06:32:01.847Z,52.75
2016-04-04T06:33:01.943Z,52.94
2016-04-04T06:34:01.963Z,52.94
2016-04-04T06:35:01.996Z,52.55
2016-04-04T06:36:01.998Z,53.41
2016-04-04T06:37:02.018Z,53.51
2016-04-04T06:38:02.051Z,53.41
2016-04-04T06:39:02.023Z,52.84
2016-04-04T06:40:02.025Z,53.13
2016-04-04T06:41:02.043Z,53.41
2016-04-04T06:42:02.062Z,53.41
2016-04-04T06:43:02.080Z,52.94
2016-04-04T06:44:02.114Z,53.41
2016-04-04T06:45:02.132Z,53.41
2016-04-04T06:46:02.151Z,53.51
2016-04-04T06:47:02.169Z,53.32
2016-04-04T06:48:02.187Z,53.41
2016-04-04T06:49:02.206Z,53.34
2016-04-04T06:50:02.239Z,53.63
2016-04-04T06:51:02.367Z,53.41
2016-04-04T06:52:02.354Z,52.67
2016-04-04T06:53:02.372Z,52.77
2016-04-04T06:54:02.563Z,52.77
2016-04-04T06:55:02.519Z,53.44
2016-04-04T06:56:02.505Z,53.53
2016-04-04T06:57:02.524Z,53.34
2016-04-04T06:58:02.527Z,53.16
2016-04-04T06:59:02.544Z,53.44
2016-04-04T07:00:02.547Z,53.44
2016-04-04T07:01:02.680Z,53.53
2016-04-04T07:02:02.699Z,53.34
2016-04-04T07:03:02.701Z,52.67
2016-04-04T07:04:02.720Z,53.44
2016-04-04T07:05:02.722Z,53.63
2016-04-04T07:06:02.726Z,53.73
2016-04-04T07:07:02.728Z,53.34
2016-04-04T07:08:02.715Z,53.34
2016-04-04T07:09:02.733Z,53.44
2016-04-04T07:10:02.736Z,53.63
2016-04-04T07:11:02.738Z,54.11
2016-04-04T07:12:02.741Z,53.82
2016-04-04T07:13:02.603Z,53.82
2016-04-04T07:14:02.761Z,54.14
2016-04-04T07:15:02.781Z,54.04
2016-04-04T07:16:02.798Z,53.37
2016-04-04T07:17:02.832Z,53.56
2016-04-04T07:18:02.850Z,53.75
2016-04-04T07:19:02.885Z,53.66
2016-04-04T07:20:02.903Z,53.85
2016-04-04T07:21:02.921Z,53.47
2016-04-04T07:22:02.956Z,53.28
2016-04-04T07:23:02.958Z,52.89
2016-04-04T07:24:02.977Z,53.47
2016-04-04T07:25:03.010Z,53.08
2016-04-04T07:26:03.029Z,53.66
2016-04-04T07:27:03.047Z,53.08
2016-04-04T07:28:03.081Z,53.11
2016-04-04T07:29:03.099Z,53.11
2016-04-04T07:30:03.117Z,53.59
2016-04-04T07:31:03.136Z,53.49
2016-04-04T07:32:03.171Z,53.02
2016-04-04T07:33:03.188Z,53.02
2016-04-04T07:34:03.206Z,52.73
2016-04-04T07:35:03.241Z,53.11
2016-04-04T07:36:03.258Z,53.02
2016-04-04T07:37:03.277Z,52.73
2016-04-04T07:38:03.295Z,52.73
2016-04-04T07:39:03.345Z,53.33
2016-04-04T07:40:03.348Z,53.23
2016-04-04T07:41:03.366Z,52.85
2016-04-04T07:42:03.400Z,53.04
2016-04-04T07:43:03.433Z,53.14
2016-04-04T07:44:03.437Z,52.85
2016-04-04T07:45:03.456Z,53.04
2016-04-04T07:46:03.489Z,52.95
2016-04-04T07:47:03.506Z,53.04
2016-04-04T07:48:03.525Z,53.04
2016-04-04T07:49:03.559Z,53.14
2016-04-04T07:50:03.578Z,52.95
2016-04-04T07:51:03.596Z,53.33
2016-04-04T07:52:03.630Z,53.26
2016-04-04T07:53:03.632Z,53.16
2016-04-04T07:54:03.667Z,53.45
2016-04-04T07:55:03.685Z,53.45
2016-04-04T07:56:03.702Z,53.36
2016-04-04T07:57:03.753Z,53.36
2016-04-04T07:58:03.755Z,53.07
2016-04-04T07:59:03.774Z,52.97
2016-04-04T08:00:03.807Z,52.59
2016-04-04T08:01:03.826Z,52.69
2016-04-04T08:02:03.843Z,52.59
2016-04-04T08:03:03.879Z,52.59
2016-04-04T08:04:03.912Z,52.23
2016-04-04T08:05:03.930Z,52.42
2016-04-04T08:06:03.949Z,52.04
2016-04-04T08:07:03.968Z,51.85
2016-04-04T08:08:03.985Z,51.75
2016-04-04T08:09:04.003Z,51.65
2016-04-04T08:10:04.037Z,51.56
2016-04-04T08:11:04.056Z,51.75
2016-04-04T08:12:04.090Z,51.65
2016-04-04T08:13:04.108Z,51.85
2016-04-04T08:14:04.126Z,51.65
2016-04-04T08:15:04.144Z,51.28
2016-04-04T08:16:04.178Z,51.28
2016-04-04T08:17:04.197Z,51.18
2016-04-04T08:18:04.215Z,50.7
2016-04-04T08:19:04.234Z,50.89
2016-04-04T08:20:04.267Z,51.1
2016-04-04T08:21:04.286Z,50.92
2016-04-04T08:22:04.305Z,50.92
2016-04-04T08:23:04.338Z,51.01
2016-04-04T08:24:04.372Z,50.73
2016-04-04T08:25:04.375Z,50.92
2016-04-04T08:26:04.409Z,50.82
2016-04-04T08:27:04.427Z,50.53
2016-04-04T08:28:04.461Z,50.43
2016-04-04T08:29:04.479Z,50.63
2016-04-04T08:30:04.498Z,50.53
2016-04-04T08:31:04.532Z,50.43
2016-04-04T08:32:04.550Z,50.53
2016-04-04T08:33:04.568Z,50.65
2016-04-04T08:34:04.592Z,50.56
2016-04-04T08:35:04.599Z,50.56
2016-04-04T08:36:04.621Z,50.46
2016-04-04T08:37:04.628Z,50.46
2016-04-04T08:38:04.649Z,50.37
2016-04-04T08:39:04.647Z,50.75
2016-04-04T08:40:04.676Z,50.56
2016-04-04T08:41:04.705Z,50.46
2016-04-04T08:42:04.720Z,50.56
2016-04-04T08:43:04.734Z,50.37
2016-04-04T08:44:04.750Z,50.37
2016-04-04T08:45:04.783Z,50.46
2016-04-04T08:46:04.800Z,50.37
2016-04-04T08:47:04.832Z,50.46
2016-04-04T08:48:04.848Z,50.56
2016-04-04T08:49:04.867Z,50.46
2016-04-04T08:50:04.883Z,50.65
2016-04-04T08:51:04.917Z,50.17
2016-04-04T08:52:04.934Z,50.1
2016-04-04T08:53:04.967Z,50.75
2016-04-04T08:54:04.985Z,49.98
2016-04-04T08:55:05.004Z,50.1
2016-04-04T08:56:05.037Z,49.98
2016-04-04T08:57:05.055Z,50.2
2016-04-04T08:58:05.088Z,50.29
2016-04-04T08:59:05.106Z,50.1
2016-04-04T09:00:05.141Z,49.82
2016-04-04T09:01:05.144Z,49.82
2016-04-04T09:02:05.177Z,49.82
2016-04-04T09:03:05.195Z,49.82
2016-04-04T09:04:05.230Z,50.49
2016-04-04T09:05:05.247Z,49.62
2016-04-04T09:06:05.282Z,49.82
2016-04-04T09:07:05.315Z,49.72
2016-04-04T09:08:05.334Z,49.65
2016-04-04T09:09:05.352Z,49.74
2016-04-04T09:10:05.371Z,49.65
2016-04-04T09:11:05.388Z,50.13
2016-04-04T09:12:05.407Z,49.55
2016-04-04T09:13:05.440Z,50.42
2016-04-04T09:14:05.475Z,50.51
2016-04-04T09:15:05.493Z,50.32
2016-04-04T09:16:05.527Z,49.46
2016-04-04T09:17:05.561Z,49.46
2016-04-04T09:18:05.579Z,49.55
2016-04-04T09:19:05.598Z,49.26
2016-04-04T09:20:05.616Z,49.46
2016-04-04T09:21:05.681Z,49.55
2016-04-04T09:22:05.668Z,49.93
2016-04-04T09:23:05.702Z,50.13
2016-04-04T09:24:05.720Z,49.55
2016-04-04T09:25:05.739Z,49.36
2016-04-04T09:26:05.773Z,49.38
2016-04-04T09:27:05.791Z,49.26
2016-04-04T09:28:05.825Z,49.29
2016-04-04T09:29:05.859Z,49.1
2016-04-04T09:30:05.893Z,49.38
2016-04-04T09:31:05.896Z,49.38
2016-04-04T09:32:05.914Z,48.9
2016-04-04T09:33:05.947Z,49.1
2016-04-04T09:34:05.966Z,49
2016-04-04T09:35:06.000Z,48.81
2016-04-04T09:36:06.018Z,48.9
2016-04-04T09:37:06.052Z,48.81
2016-04-04T09:38:06.071Z,48.71
2016-04-04T09:39:06.089Z,48.81
2016-04-04T09:40:06.185Z,49
2016-04-04T09:41:06.141Z,48.81
2016-04-04T09:42:06.159Z,48.71
2016-04-04T09:43:06.193Z,48.35
2016-04-04T09:44:06.212Z,48.45
2016-04-04T09:45:06.246Z,48.45
2016-04-04T09:46:06.280Z,48.25
2016-04-04T09:47:06.282Z,48.35
2016-04-04T09:48:06.331Z,48.07
2016-04-04T09:49:06.351Z,48.25
2016-04-04T09:50:06.385Z,48.38
2016-04-04T09:51:06.403Z,47.97
2016-04-04T09:52:06.420Z,47.8
2016-04-04T09:53:06.439Z,47.8
2016-04-04T09:54:06.472Z,47.8
2016-04-04T09:55:06.491Z,47.7
2016-04-04T09:56:06.526Z,47.89
2016-04-04T09:57:06.544Z,47.13
2016-04-04T09:58:06.562Z,47.61
2016-04-04T09:59:06.596Z,47.41
2016-04-04T10:00:06.630Z,47.7
2016-04-04T10:01:06.648Z,47.61
2016-04-04T10:02:06.683Z,47.72
2016-04-04T10:03:06.701Z,47.82
2016-04-04T10:04:06.735Z,47.92
2016-04-04T10:05:06.768Z,47.92
2016-04-04T10:06:06.786Z,47.82
2016-04-04T10:07:06.805Z,47.82
2016-04-04T10:08:06.839Z,47.34
2016-04-04T10:09:06.857Z,47.53
2016-04-04T10:10:06.880Z,47.53
2016-04-04T10:11:06.898Z,47.24
2016-04-04T10:12:06.933Z,47.34
2016-04-04T10:13:06.967Z,46.98
2016-04-04T10:14:06.985Z,46.98
2016-04-04T10:15:07.018Z,46.88
2016-04-04T10:16:07.053Z,46.78
2016-04-04T10:17:07.056Z,46.69
2016-04-04T10:18:07.090Z,46.59
2016-04-04T10:19:07.123Z,46.59
2016-04-04T10:20:07.142Z,46.21
2016-04-04T10:21:07.159Z,46.14
2016-04-04T10:22:07.194Z,45.94
2016-04-04T10:23:07.353Z,46.04
2016-04-04T10:24:06.684Z,45.65
2016-04-04T10:25:07.420Z,45.65
2016-04-04T10:26:07.361Z,45.29
2016-04-04T10:27:07.458Z,45.29
2016-04-04T10:28:07.429Z,44.9
2016-04-04T10:29:07.494Z,45.2
2016-04-04T10:30:07.419Z,45.1
2016-04-04T10:31:07.436Z,45.1
2016-04-04T10:32:07.455Z,44.9
2016-04-04T10:33:07.488Z,44.71
2016-04-04T10:34:07.508Z,44.42
2016-04-04T10:35:07.542Z,44.06
2016-04-04T10:36:07.575Z,44.06
2016-04-04T10:37:07.593Z,44.23
2016-04-04T10:38:07.612Z,44.45
2016-04-04T10:39:07.661Z,44.25
2016-04-04T10:40:07.664Z,43.77
2016-04-04T10:41:07.699Z,43.96
2016-04-04T10:42:07.732Z,43.87
2016-04-04T10:43:07.782Z,43.77
2016-04-04T10:44:07.784Z,43.96
2016-04-04T10:45:07.803Z,43.6
2016-04-04T10:46:07.837Z,43.6
2016-04-04T10:47:07.855Z,43.41
2016-04-04T10:48:07.889Z,43.7
2016-04-04T10:49:07.907Z,43.79
2016-04-04T10:50:07.941Z,43.31
2016-04-04T10:51:07.990Z,43.41
2016-04-04T10:52:08.009Z,43.12
2016-04-04T10:53:08.043Z,43.31
2016-04-04T10:54:08.061Z,43.41
2016-04-04T10:55:08.111Z,43.7
2016-04-04T10:56:08.097Z,43.31
2016-04-04T10:57:08.131Z,43.02
2016-04-04T10:58:08.166Z,43.04
2016-04-04T10:59:08.184Z,42.73
2016-04-04T11:00:08.218Z,42.85
2016-04-04T11:01:08.236Z,43.14
2016-04-04T11:02:08.270Z,43.04
2016-04-04T11:03:08.305Z,42.66
2016-04-04T11:04:08.322Z,42.56
2016-04-04T11:05:08.357Z,42.36
2016-04-04T11:06:08.405Z,42.08
2016-04-04T11:07:08.409Z,42.08
2016-04-04T11:08:08.458Z,42.36
2016-04-04T11:09:08.471Z,41.91
2016-04-04T11:10:08.520Z,42
2016-04-04T11:11:08.523Z,41.91
2016-04-04T11:12:08.541Z,41.71
2016-04-04T11:13:08.575Z,41.81
2016-04-04T11:14:08.609Z,41.23
2016-04-04T11:15:08.628Z,41.33
2016-04-04T11:16:08.661Z,41.03
2016-04-04T11:17:08.695Z,41.13
2016-04-04T11:18:08.714Z,41.03
2016-04-04T11:19:08.748Z,40.65
2016-04-04T11:20:08.781Z,40.86
2016-04-04T11:21:08.800Z,40.96
2016-04-04T11:22:08.834Z,41.05
2016-04-04T11:23:08.853Z,40.86
2016-04-04T11:24:08.902Z,40.67
2016-04-04T11:25:08.920Z,40.86
2016-04-04T11:26:08.939Z,40.77
2016-04-04T11:27:08.972Z,40.77
2016-04-04T11:28:09.006Z,40.19
2016-04-04T11:29:09.041Z,40.28
2016-04-04T11:30:09.058Z,40.19
2016-04-04T11:31:09.218Z,40.19
2016-04-04T11:32:09.220Z,40.19
2016-04-04T11:33:09.144Z,39.8
2016-04-04T11:34:09.256Z,39.99
2016-04-04T11:35:09.259Z,39.99
2016-04-04T11:36:09.277Z,39.92
2016-04-04T11:37:09.342Z,40.01
2016-04-04T11:38:09.361Z,39.9
2016-04-04T11:39:09.354Z,39.8
2016-04-04T11:40:09.356Z,39.82
2016-04-04T11:41:09.468Z,40.11
2016-04-04T11:42:09.486Z,39.82
2016-04-04T11:43:09.504Z,39.92
2016-04-04T11:44:09.523Z,40.01
2016-04-04T11:45:09.541Z,40.01
2016-04-04T11:46:09.544Z,39.82
2016-04-04T11:47:09.561Z,39.72
2016-04-04T11:48:09.627Z,39.62
2016-04-04T11:49:09.599Z,39.62
2016-04-04T11:50:09.647Z,39.43
2016-04-04T11:51:09.666Z,39.34
2016-04-04T11:52:09.700Z,39.34
2016-04-04T11:53:09.719Z,39.43
2016-04-04T11:54:09.752Z,39.14
2016-04-04T11:55:09.803Z,39.34
2016-04-04T11:56:09.821Z,38.95
2016-04-04T11:57:09.839Z,39.04
2016-04-04T11:58:09.874Z,38.76
2016-04-04T11:59:09.907Z,38.56
2016-04-04T12:00:09.925Z,38.76
2016-04-04T12:01:09.974Z,38.78
2016-04-04T12:02:09.993Z,38.66
2016-04-04T12:03:10.027Z,38.58
2016-04-04T12:04:10.045Z,38.87
2016-04-04T12:05:10.079Z,38.87
2016-04-04T12:06:10.112Z,38.48
2016-04-04T12:07:10.131Z,38.68
2016-04-04T12:08:10.165Z,38.58
2016-04-04T12:09:10.198Z,38.68
2016-04-04T12:10:10.234Z,38.29
2016-04-04T12:11:10.267Z,38.58
2016-04-04T12:12:10.286Z,38.68
2016-04-04T12:13:10.320Z,38.39
2016-04-04T12:14:10.354Z,38
2016-04-04T12:15:10.372Z,37.62
2016-04-04T12:16:10.406Z,37.71
2016-04-04T12:17:10.439Z,37.54
2016-04-04T12:18:10.473Z,38.12
2016-04-04T12:19:10.508Z,38.02
2016-04-04T12:20:10.525Z,37.73
2016-04-04T12:21:10.561Z,38.02
2016-04-04T12:22:10.578Z,36.96
2016-04-04T12:23:10.612Z,37.92
2016-04-04T12:24:10.647Z,38.21
2016-04-04T12:25:10.680Z,37.63
2016-04-04T12:26:10.730Z,37.24
2016-04-04T12:27:10.733Z,38.02
2016-04-04T12:28:10.766Z,37.82
2016-04-04T12:29:10.800Z,37.65
2016-04-04T12:30:10.834Z,37.26
2016-04-04T12:31:10.852Z,37.26
2016-04-04T12:32:10.902Z,37.17
2016-04-04T12:33:10.904Z,36.78
2016-04-04T12:34:10.954Z,36.58
2016-04-04T12:35:10.972Z,36.4
2016-04-04T12:36:11.021Z,35.62
2016-04-04T12:37:11.040Z,35.91
2016-04-04T12:38:11.074Z,35.81
2016-04-04T12:39:11.108Z,35.81
2016-04-04T12:40:11.143Z,35.42
2016-04-04T12:41:11.160Z,35.52
2016-04-04T12:42:11.304Z,35.35
2016-04-04T12:43:11.229Z,35.25
2016-04-04T12:44:11.247Z,35.44
2016-04-04T12:45:11.390Z,35.25
2016-04-04T12:46:11.423Z,35.35
2016-04-04T12:47:11.426Z,35.35
2016-04-04T12:48:11.429Z,35.15
2016-04-04T12:49:11.447Z,35.15
2016-04-04T12:50:11.450Z,35.25
2016-04-04T12:51:11.453Z,35.25
2016-04-04T12:52:11.564Z,34.67
2016-04-04T12:53:11.614Z,34.86
2016-04-04T12:54:11.616Z,34.96
2016-04-04T12:55:11.619Z,34.49
2016-04-04T12:56:11.638Z,34.11
2016-04-04T12:57:11.640Z,34.3